createdAt,value
2023-01-31T00:02:05.438Z,6.30
2023-01-31T00:05:20.172Z,7.25
2023-01-31T00:08:32.560Z,7.10
2023-01-31T00:11:44.993Z,6.50
2023-01-31T00:14:58.897Z,6.48
2023-01-31T00:18:11.337Z,6.50
2023-01-31T00:21:27.018Z,6.35
2023-01-31T00:24:39.088Z,6.85
2023-01-31T00:27:51.238Z,7.20
2023-01-31T00:31:05.740Z,6.78
2023-01-31T00:34:18.931Z,6.43
2023-01-31T00:37:31.141Z,6.50
2023-01-31T00:40:43.617Z,6.43
2023-01-31T00:43:59.674Z,6.75
2023-01-31T00:47:11.901Z,8.07
2023-01-31T00:50:25.701Z,7.05
2023-01-31T00:53:39.840Z,6.83
2023-01-31T00:56:51.845Z,7.15
2023-01-31T01:00:04.050Z,7.03
2023-01-31T01:03:16.667Z,7.25
2023-01-31T01:06:30.541Z,7.48
2023-01-31T01:09:42.530Z,7.00
2023-01-31T01:12:54.607Z,6.00
2023-01-31T01:16:13.034Z,6.43
2023-01-31T01:19:26.323Z,6.08
2023-01-31T01:22:39.682Z,6.15
2023-01-31T01:25:52.660Z,6.63
2023-01-31T01:29:08.067Z,6.58
2023-01-31T01:32:20.399Z,5.63
2023-01-31T01:35:33.005Z,5.43
2023-01-31T01:38:46.402Z,5.70
2023-01-31T01:41:58.462Z,5.63
2023-01-31T01:45:21.308Z,5.83
2023-01-31T01:48:35.069Z,5.55
2023-01-31T01:51:49.057Z,5.80
2023-01-31T01:55:06.801Z,6.00
2023-01-31T01:58:23.840Z,5.20
2023-01-31T02:04:53.439Z,5.18
2023-01-31T02:08:07.282Z,5.70
2023-01-31T02:11:25.747Z,5.50
2023-01-31T02:14:38.014Z,4.80
2023-01-31T02:17:50.298Z,5.33
2023-01-31T02:21:58.615Z,5.35
2023-01-31T02:25:57.989Z,5.70
2023-01-31T02:29:42.185Z,5.68
2023-01-31T02:33:05.113Z,4.73
2023-01-31T02:36:26.835Z,5.20
2023-01-31T02:39:45.593Z,6.23
2023-01-31T02:43:05.789Z,5.45
2023-01-31T02:46:22.194Z,5.23
2023-01-31T02:49:41.137Z,5.75
2023-01-31T02:53:03.370Z,5.35
2023-01-31T02:56:25.144Z,5.35
2023-01-31T02:59:39.078Z,6.18
2023-01-31T03:02:51.108Z,5.48
2023-01-31T03:06:48.673Z,5.95
2023-01-31T03:10:09.012Z,5.80
2023-01-31T03:13:42.668Z,5.50
2023-01-31T03:17:13.952Z,5.23
2023-01-31T03:20:32.013Z,5.45
2023-01-31T03:23:45.287Z,6.00
2023-01-31T03:26:57.702Z,4.93
2023-01-31T03:30:18.546Z,4.75
2023-01-31T03:33:35.432Z,4.90
2023-01-31T03:36:55.003Z,4.20
2023-01-31T03:40:30.766Z,5.80
2023-01-31T03:43:48.508Z,4.55
2023-01-31T03:47:06.061Z,4.35
2023-01-31T03:50:24.509Z,4.63
2023-01-31T03:53:43.162Z,4.05
2023-01-31T03:57:00.993Z,5.33
2023-01-31T04:00:19.901Z,5.00
2023-01-31T04:03:39.730Z,4.55
2023-01-31T04:06:52.473Z,4.28
2023-01-31T04:10:05.648Z,4.58
2023-01-31T04:13:17.944Z,4.68
2023-01-31T04:16:29.994Z,4.13
2023-01-31T04:19:41.891Z,4.05
2023-01-31T04:22:53.898Z,3.80
2023-01-31T04:26:06.094Z,4.60
2023-01-31T04:29:18.231Z,3.65
2023-01-31T04:32:30.142Z,3.90
2023-01-31T04:35:42.304Z,4.53
2023-01-31T04:38:54.203Z,3.88
2023-01-31T04:42:05.985Z,4.00
2023-01-31T04:45:19.646Z,3.80
2023-01-31T04:48:31.875Z,3.70
2023-01-31T04:51:44.048Z,3.63
2023-01-31T04:54:56.054Z,4.00
2023-01-31T04:58:08.785Z,3.30
2023-01-31T05:01:20.790Z,2.53
2023-01-31T05:04:32.846Z,3.15
2023-01-31T05:07:45.839Z,3.30
2023-01-31T05:11:05.857Z,2.20
2023-01-31T05:14:18.552Z,3.00
2023-01-31T05:17:31.527Z,3.13
2023-01-31T05:20:45.107Z,2.88
2023-01-31T05:23:57.490Z,2.83
2023-01-31T05:27:09.918Z,3.10
2023-01-31T05:30:24.276Z,4.15
2023-01-31T05:33:36.575Z,4.18
2023-01-31T05:36:49.212Z,4.13
2023-01-31T05:40:01.211Z,3.85
2023-01-31T05:43:13.316Z,4.50
2023-01-31T05:46:25.527Z,4.38
2023-01-31T05:49:37.606Z,4.58
2023-01-31T05:52:50.128Z,4.83
2023-01-31T05:56:02.592Z,4.35
2023-01-31T05:59:15.274Z,4.23
2023-01-31T06:02:27.228Z,4.88
2023-01-31T06:05:40.594Z,4.45
2023-01-31T06:08:52.746Z,4.68
2023-01-31T06:12:05.096Z,4.30
2023-01-31T06:15:19.037Z,4.10
2023-01-31T06:18:31.878Z,3.85
2023-01-31T06:21:44.448Z,3.18
2023-01-31T06:24:56.434Z,3.75
2023-01-31T06:28:08.864Z,4.23
2023-01-31T06:31:21.122Z,2.73
2023-01-31T06:34:33.550Z,3.28
2023-01-31T06:37:45.718Z,3.00
2023-01-31T06:40:57.889Z,3.33
2023-01-31T06:44:10.200Z,3.28
2023-01-31T06:47:22.267Z,3.53
2023-01-31T06:50:34.556Z,3.95
2023-01-31T06:53:46.506Z,3.90
2023-01-31T06:56:58.520Z,4.55
2023-01-31T07:00:13.523Z,4.53
2023-01-31T07:03:25.497Z,4.75
2023-01-31T07:06:37.535Z,4.98
2023-01-31T07:09:49.634Z,5.00
2023-01-31T07:13:02.185Z,4.30
2023-01-31T07:16:17.030Z,4.53
2023-01-31T07:19:29.213Z,4.33
2023-01-31T07:22:41.421Z,5.00
2023-01-31T07:25:53.579Z,4.95
2023-01-31T07:29:05.648Z,6.53
2023-01-31T07:32:18.057Z,5.13
2023-01-31T07:35:30.189Z,4.73
2023-01-31T07:38:42.351Z,4.80
2023-01-31T07:41:54.451Z,4.90
2023-01-31T07:45:22.436Z,4.85
2023-01-31T07:48:24.000Z,4.35
2023-01-31T07:51:36.115Z,4.38
2023-01-31T07:54:47.932Z,5.73
2023-01-31T07:57:59.827Z,5.15
2023-01-31T08:01:26.854Z,5.25
2023-01-31T08:07:52.366Z,5.08
2023-01-31T08:11:05.295Z,4.40
2023-01-31T08:14:17.374Z,5.35
2023-01-31T08:17:29.541Z,5.38
2023-01-31T08:20:42.051Z,4.98
2023-01-31T08:23:55.445Z,4.50
2023-01-31T08:27:07.834Z,4.33
2023-01-31T08:30:22.059Z,4.43
2023-01-31T08:33:34.234Z,4.43
2023-01-31T08:36:46.732Z,5.68
2023-01-31T08:39:58.703Z,4.95
2023-01-31T08:43:10.536Z,4.93
2023-01-31T08:46:23.019Z,4.90
2023-01-31T08:49:37.167Z,5.15
2023-01-31T08:52:49.149Z,5.28
2023-01-31T08:56:07.795Z,5.70
2023-01-31T08:59:20.419Z,5.25
2023-01-31T09:02:32.594Z,5.73
2023-01-31T09:05:44.766Z,5.53
2023-01-31T09:08:57.217Z,5.38
2023-01-31T09:12:11.771Z,6.08
2023-01-31T09:15:24.457Z,5.43
2023-01-31T09:18:36.937Z,5.93
2023-01-31T09:21:49.128Z,7.08
2023-01-31T09:25:01.081Z,6.45
2023-01-31T09:28:13.223Z,7.05
2023-01-31T09:31:26.596Z,6.63
2023-01-31T09:34:39.017Z,6.28
2023-01-31T09:37:50.962Z,6.60
2023-01-31T09:41:07.365Z,6.15
2023-01-31T09:44:24.080Z,5.68
2023-01-31T09:47:40.989Z,6.18
2023-01-31T09:50:58.730Z,7.35
2023-01-31T09:54:17.273Z,7.00
2023-01-31T09:57:40.329Z,7.55
2023-01-31T10:00:59.033Z,6.55
2023-01-31T10:04:33.427Z,6.40
2023-01-31T10:07:52.810Z,7.43
2023-01-31T10:11:11.560Z,8.23
2023-01-31T10:14:34.427Z,8.00
2023-01-31T10:17:53.139Z,7.18
2023-01-31T10:21:11.052Z,7.73
2023-01-31T10:24:29.203Z,6.63
2023-01-31T10:27:50.692Z,6.55
2023-01-31T10:31:09.789Z,6.68
2023-01-31T10:34:26.102Z,7.18
2023-01-31T10:37:45.988Z,9.20
2023-01-31T10:41:03.318Z,7.00
2023-01-31T10:44:25.559Z,6.35
2023-01-31T10:47:41.282Z,6.08
2023-01-31T10:51:05.239Z,8.20
2023-01-31T10:54:29.906Z,7.08
2023-01-31T10:57:42.158Z,6.15
2023-01-31T11:00:55.241Z,5.43
2023-01-31T11:04:13.752Z,5.55
2023-01-31T11:07:26.640Z,5.70
2023-01-31T11:10:40.443Z,5.63
2023-01-31T11:14:05.395Z,5.80
2023-01-31T11:17:25.236Z,5.55
2023-01-31T11:20:40.815Z,5.95
2023-01-31T11:23:53.140Z,5.58
2023-01-31T11:27:10.661Z,5.65
2023-01-31T11:30:36.225Z,5.70
2023-01-31T11:33:53.315Z,6.55
2023-01-31T11:40:34.842Z,5.40
2023-01-31T11:43:49.285Z,5.00
2023-01-31T11:47:05.304Z,5.70
2023-01-31T11:50:28.953Z,6.53
2023-01-31T11:53:47.236Z,4.83
2023-01-31T11:57:00.428Z,4.78
2023-01-31T12:00:26.546Z,5.03
2023-01-31T12:03:51.809Z,5.53
2023-01-31T12:07:08.285Z,5.08
2023-01-31T12:10:47.150Z,4.55
2023-01-31T12:14:06.817Z,4.38
2023-01-31T12:17:22.378Z,4.00
2023-01-31T12:20:44.724Z,4.43
2023-01-31T12:24:04.913Z,3.93
2023-01-31T12:27:30.263Z,4.50
2023-01-31T12:31:21.589Z,4.55
2023-01-31T12:34:59.453Z,5.18
2023-01-31T12:38:11.976Z,4.70
2023-01-31T12:41:36.077Z,4.38
2023-01-31T12:44:55.369Z,4.00
2023-01-31T12:48:36.948Z,4.48
2023-01-31T12:51:55.789Z,3.98
2023-01-31T12:55:21.036Z,4.00
2023-01-31T12:58:49.635Z,4.15
2023-01-31T13:02:07.170Z,5.13
2023-01-31T13:05:30.812Z,4.38
2023-01-31T13:08:57.066Z,5.33
2023-01-31T13:12:07.116Z,4.75
2023-01-31T13:15:25.853Z,5.05
2023-01-31T13:18:40.901Z,4.55
2023-01-31T13:21:58.853Z,4.85
2023-01-31T13:25:19.488Z,4.75
2023-01-31T13:28:36.563Z,4.68
2023-01-31T13:31:55.157Z,5.10
2023-01-31T13:35:14.138Z,5.08
2023-01-31T13:38:28.262Z,5.03
2023-01-31T13:41:41.295Z,5.00
2023-01-31T13:44:55.002Z,5.05
2023-01-31T13:48:12.560Z,5.20
2023-01-31T13:51:29.467Z,5.20
2023-01-31T13:54:45.803Z,5.75
2023-01-31T13:58:06.713Z,6.65
2023-01-31T14:01:26.310Z,6.48
2023-01-31T14:04:43.666Z,6.10
2023-01-31T14:08:20.478Z,5.60
2023-01-31T14:11:48.913Z,5.85
2023-01-31T14:15:03.861Z,6.48
2023-01-31T14:18:16.659Z,6.10
2023-01-31T14:22:03.486Z,6.25
2023-01-31T14:25:21.351Z,7.25
2023-01-31T14:28:36.009Z,6.23
2023-01-31T14:31:48.923Z,6.38
2023-01-31T14:35:02.751Z,7.38
2023-01-31T14:38:21.731Z,7.58
2023-01-31T14:41:40.854Z,7.40
2023-01-31T14:45:05.268Z,8.05
2023-01-31T14:48:38.599Z,6.33
2023-01-31T14:52:06.895Z,6.15
2023-01-31T14:55:41.275Z,6.00
2023-01-31T14:58:54.621Z,7.10
2023-01-31T15:02:22.502Z,7.98
2023-01-31T15:05:51.713Z,6.55
2023-01-31T15:09:41.794Z,6.18
2023-01-31T15:13:05.084Z,5.80
2023-01-31T15:16:26.739Z,5.95
2023-01-31T15:19:47.506Z,5.68
2023-01-31T15:23:07.203Z,7.03
2023-01-31T15:29:28.789Z,7.43
2023-01-31T15:32:45.974Z,6.40
2023-01-31T15:36:04.183Z,6.80
2023-01-31T15:39:27.381Z,8.25
2023-01-31T15:42:40.498Z,8.15
2023-01-31T15:45:53.159Z,9.08
2023-01-31T15:49:06.570Z,8.85
2023-01-31T15:52:24.643Z,8.85
2023-01-31T15:55:38.720Z,8.70
2023-01-31T15:58:55.468Z,9.93
2023-01-31T16:02:16.379Z,9.75
2023-01-31T16:05:31.578Z,9.28
2023-01-31T16:08:45.092Z,9.03
2023-01-31T16:11:57.784Z,9.13
2023-01-31T16:15:21.026Z,10.00
2023-01-31T16:18:33.733Z,9.80
2023-01-31T16:21:49.370Z,9.08
2023-01-31T16:25:04.253Z,9.33
2023-01-31T16:28:19.593Z,9.90
2023-01-31T16:31:36.958Z,10.50
2023-01-31T16:34:49.869Z,10.08
2023-01-31T16:38:11.898Z,9.65
2023-01-31T16:41:30.225Z,8.95
2023-01-31T16:44:46.875Z,8.60
2023-01-31T16:47:59.387Z,7.13
2023-01-31T16:51:46.097Z,6.95
2023-01-31T16:55:02.708Z,6.85
2023-01-31T16:58:18.194Z,6.80
2023-01-31T17:01:34.837Z,7.58
2023-01-31T17:04:48.365Z,7.10
2023-01-31T17:08:01.704Z,6.80
2023-01-31T17:11:23.582Z,6.88
2023-01-31T17:14:32.976Z,8.03
2023-01-31T17:17:45.581Z,8.45
2023-01-31T17:20:57.973Z,8.38
2023-01-31T17:24:13.808Z,7.70
2023-01-31T17:27:27.442Z,8.38
2023-01-31T17:30:40.906Z,9.00
2023-01-31T17:33:53.890Z,10.33
2023-01-31T17:37:06.391Z,8.88
2023-01-31T17:40:19.878Z,8.23
2023-01-31T17:43:32.143Z,8.38
2023-01-31T17:46:44.424Z,8.68
2023-01-31T17:49:57.500Z,9.18
2023-01-31T17:53:09.587Z,9.13
2023-01-31T17:56:21.975Z,9.23
2023-01-31T17:59:35.901Z,9.08
2023-01-31T18:02:48.579Z,9.08
2023-01-31T18:06:08.262Z,9.80
2023-01-31T18:09:21.265Z,10.73
2023-01-31T18:12:35.511Z,11.23
2023-01-31T18:15:48.793Z,10.15
2023-01-31T18:19:01.331Z,10.50
2023-01-31T18:22:14.278Z,10.85
2023-01-31T18:25:26.596Z,12.05
2023-01-31T18:28:39.594Z,12.45
2023-01-31T18:31:51.988Z,11.33
2023-01-31T18:42:27.990Z,11.38
2023-01-31T18:45:40.353Z,10.60
2023-01-31T18:48:53.146Z,9.60
2023-01-31T18:52:06.491Z,8.70
2023-01-31T18:59:00.308Z,8.73
2023-01-31T19:06:47.572Z,6.63
2023-01-31T19:10:00.193Z,6.88
2023-01-31T19:13:20.362Z,6.78
2023-01-31T19:16:34.484Z,7.08
2023-01-31T19:27:16.473Z,7.30
2023-01-31T19:30:29.207Z,6.90
2023-01-31T19:33:41.597Z,7.13
2023-01-31T19:36:54.140Z,6.60
2023-01-31T19:40:06.647Z,6.10
2023-01-31T19:43:18.860Z,6.50
2023-01-31T19:46:37.206Z,6.28
2023-01-31T19:49:49.599Z,6.25
2023-01-31T19:53:02.316Z,5.75
2023-01-31T19:56:16.369Z,5.23
2023-01-31T19:59:28.987Z,6.40
2023-01-31T20:02:46.004Z,5.83
2023-01-31T20:05:58.577Z,5.80
2023-01-31T20:09:14.540Z,5.15
2023-01-31T20:19:50.625Z,5.85
2023-01-31T20:26:43.479Z,5.43
2023-01-31T20:29:55.699Z,6.05
2023-01-31T20:33:18.898Z,5.25
2023-01-31T20:36:32.010Z,5.10
2023-01-31T20:39:45.140Z,5.53
2023-01-31T20:42:57.957Z,4.55
2023-01-31T20:46:32.273Z,4.38
2023-01-31T20:53:28.795Z,4.35
2023-01-31T20:56:52.126Z,5.10
2023-01-31T21:11:25.205Z,3.43
2023-01-31T21:18:25.648Z,4.00
2023-01-31T21:21:48.056Z,3.88
2023-01-31T21:25:00.291Z,4.40
2023-01-31T21:48:07.107Z,4.08
2023-01-31T22:05:18.785Z,3.60
2023-01-31T22:19:43.162Z,3.95
2023-01-31T22:34:34.362Z,3.53
2023-01-31T22:52:34.890Z,3.95
